createdAt,value
2018-10-06T00:01:15.918Z,5.40
2018-10-06T00:03:44.157Z,5.35
2018-10-06T00:06:12.175Z,5.87
2018-10-06T00:08:40.251Z,5.40
2018-10-06T00:11:08.323Z,6.10
2018-10-06T00:13:36.354Z,6.17
2018-10-06T00:16:04.696Z,5.13
2018-10-06T00:18:32.731Z,6.40
2018-10-06T00:21:00.826Z,6.50
2018-10-06T00:23:28.892Z,5.97
2018-10-06T00:25:56.910Z,5.60
2018-10-06T00:28:24.969Z,6.37
2018-10-06T00:30:53.112Z,7.13
2018-10-06T00:33:21.175Z,6.30
2018-10-06T00:35:49.215Z,5.93
2018-10-06T00:38:17.247Z,6.37
2018-10-06T00:40:45.269Z,6.13
2018-10-06T00:43:13.458Z,6.10
2018-10-06T00:45:41.875Z,6.30
2018-10-06T00:48:09.908Z,7.33
2018-10-06T00:50:37.930Z,5.67
2018-10-06T00:53:06.558Z,6.53
2018-10-06T00:55:34.574Z,6.60
2018-10-06T00:58:02.600Z,6.63
2018-10-06T01:00:30.650Z,6.40
2018-10-06T01:02:58.672Z,6.70
2018-10-06T01:05:26.695Z,5.77
2018-10-06T01:07:55.202Z,6.90
2018-10-06T01:10:23.230Z,6.77
2018-10-06T01:12:51.263Z,6.90
2018-10-06T01:15:19.344Z,7.17
2018-10-06T01:17:47.388Z,6.40
2018-10-06T01:20:15.591Z,6.27
2018-10-06T01:22:44.125Z,7.37
2018-10-06T01:25:12.194Z,6.73
2018-10-06T01:27:40.271Z,6.70
2018-10-06T01:30:08.383Z,6.57
2018-10-06T01:32:36.421Z,6.93
2018-10-06T01:35:04.506Z,5.93
2018-10-06T01:37:32.554Z,6.03
2018-10-06T01:40:00.606Z,6.87
2018-10-06T01:42:28.655Z,6.53
2018-10-06T01:44:56.702Z,7.40
2018-10-06T01:47:24.933Z,6.53
2018-10-06T01:49:52.965Z,6.37
2018-10-06T01:52:21.287Z,6.20
2018-10-06T01:54:49.323Z,6.57
2018-10-06T01:57:17.359Z,6.73
2018-10-06T01:59:45.411Z,6.62
2018-10-06T02:02:13.483Z,6.80
2018-10-06T02:04:41.616Z,6.90
2018-10-06T02:07:09.705Z,7.67
2018-10-06T02:09:37.788Z,7.50
2018-10-06T02:12:06.115Z,8.07
2018-10-06T02:14:34.342Z,7.27
2018-10-06T02:17:02.478Z,8.37
2018-10-06T02:19:30.542Z,7.80
2018-10-06T02:21:58.734Z,7.67
2018-10-06T02:24:26.775Z,7.40
2018-10-06T02:26:54.800Z,8.07
2018-10-06T02:29:23.183Z,7.97
2018-10-06T02:31:51.235Z,6.80
2018-10-06T02:34:19.448Z,8.33
2018-10-06T02:36:47.526Z,8.13
2018-10-06T02:39:15.681Z,8.67
2018-10-06T02:41:43.746Z,8.20
2018-10-06T02:44:11.810Z,8.83
2018-10-06T02:46:39.841Z,7.77
2018-10-06T02:49:08.179Z,8.20
2018-10-06T02:51:36.274Z,7.53
2018-10-06T02:54:04.295Z,7.30
2018-10-06T02:56:32.353Z,7.20
2018-10-06T02:59:01.675Z,7.37
2018-10-06T03:01:29.759Z,7.83
2018-10-06T03:03:57.940Z,7.60
2018-10-06T03:06:26.183Z,8.03
2018-10-06T03:08:54.447Z,7.67
2018-10-06T03:11:22.558Z,7.93
2018-10-06T03:13:50.947Z,7.93
2018-10-06T03:16:18.975Z,8.53
2018-10-06T03:18:47.018Z,8.27
2018-10-06T03:21:15.348Z,8.70
2018-10-06T03:23:43.366Z,8.40
2018-10-06T03:26:11.392Z,8.00
2018-10-06T03:28:39.411Z,8.53
2018-10-06T03:31:07.459Z,8.03
2018-10-06T03:33:35.479Z,7.60
2018-10-06T03:36:05.029Z,8.13
2018-10-06T03:38:33.062Z,8.00
2018-10-06T03:41:01.136Z,8.17
2018-10-06T03:43:29.189Z,7.90
2018-10-06T03:45:57.201Z,7.50
2018-10-06T03:48:25.280Z,8.53
2018-10-06T03:50:53.684Z,8.50
2018-10-06T03:53:21.704Z,8.57
2018-10-06T03:55:49.999Z,8.03
2018-10-06T03:58:18.446Z,8.17
2018-10-06T04:00:46.449Z,8.20
2018-10-06T04:03:14.592Z,8.73
2018-10-06T04:05:42.927Z,8.57
2018-10-06T04:08:10.985Z,7.63
2018-10-06T04:10:39.088Z,7.97
2018-10-06T04:13:07.707Z,9.03
2018-10-06T04:15:35.727Z,9.77
2018-10-06T04:18:03.758Z,9.10
2018-10-06T04:20:31.796Z,8.43
2018-10-06T04:22:59.796Z,9.13
2018-10-06T04:25:27.843Z,8.67
2018-10-06T04:27:56.326Z,9.00
2018-10-06T04:30:24.379Z,8.17
2018-10-06T04:32:52.463Z,8.13
2018-10-06T04:35:20.531Z,8.40
2018-10-06T04:37:48.531Z,7.87
2018-10-06T04:40:16.683Z,8.20
2018-10-06T04:42:44.786Z,8.83
2018-10-06T04:45:12.805Z,8.63
2018-10-06T04:47:40.865Z,7.67
2018-10-06T04:50:08.891Z,8.23
2018-10-06T04:52:37.217Z,8.27
2018-10-06T04:55:05.398Z,7.77
2018-10-06T04:57:33.473Z,7.87
2018-10-06T05:00:01.562Z,7.57
2018-10-06T05:02:29.557Z,7.93
2018-10-06T05:04:57.803Z,7.37
2018-10-06T05:07:25.846Z,8.10
2018-10-06T05:09:53.914Z,7.63
2018-10-06T05:12:21.926Z,7.83
2018-10-06T05:14:49.965Z,7.70
2018-10-06T05:17:17.989Z,7.60
2018-10-06T05:19:46.370Z,7.97
2018-10-06T05:22:14.394Z,7.13
2018-10-06T05:24:42.578Z,8.00
2018-10-06T05:27:10.845Z,8.43
2018-10-06T05:29:38.994Z,7.83
2018-10-06T05:32:07.047Z,7.30
2018-10-06T05:34:35.168Z,6.67
2018-10-06T05:37:03.367Z,8.23
2018-10-06T05:39:31.375Z,7.70
2018-10-06T05:41:59.602Z,6.77
2018-10-06T05:44:27.645Z,7.20
2018-10-06T05:46:55.649Z,6.60
2018-10-06T05:49:23.678Z,5.72
2018-10-06T05:51:52.035Z,5.70
2018-10-06T05:54:20.249Z,5.35
2018-10-06T05:56:48.538Z,5.62
2018-10-06T05:59:17.427Z,6.10
2018-10-06T06:01:45.598Z,5.90
2018-10-06T06:04:14.059Z,5.42
2018-10-06T06:06:43.059Z,5.15
2018-10-06T06:09:11.143Z,4.55
2018-10-06T06:11:39.212Z,5.05
2018-10-06T06:14:07.593Z,4.72
2018-10-06T06:16:36.578Z,5.17
2018-10-06T06:19:04.858Z,4.85
2018-10-06T06:21:32.856Z,4.67
2018-10-06T06:24:01.801Z,4.35
2018-10-06T06:26:29.888Z,4.62
2018-10-06T06:28:57.953Z,4.62
2018-10-06T06:31:26.080Z,4.78
2018-10-06T06:33:54.306Z,5.03
2018-10-06T06:36:22.405Z,4.80
2018-10-06T06:38:50.438Z,4.50
2018-10-06T06:41:18.460Z,4.80
2018-10-06T06:43:46.501Z,4.72
2018-10-06T06:46:14.535Z,4.50
2018-10-06T06:48:42.578Z,5.10
2018-10-06T06:51:10.682Z,5.28
2018-10-06T06:53:38.658Z,5.25
2018-10-06T06:56:07.170Z,4.30
2018-10-06T06:58:35.323Z,4.90
2018-10-06T07:01:03.432Z,4.83
2018-10-06T07:03:31.606Z,4.55
2018-10-06T07:05:59.638Z,5.00
2018-10-06T07:08:28.734Z,5.35
2018-10-06T07:10:56.802Z,5.12
2018-10-06T07:13:25.323Z,4.82
2018-10-06T07:15:53.346Z,4.92
2018-10-06T07:18:21.876Z,4.95
2018-10-06T07:20:50.360Z,4.75
2018-10-06T07:23:18.388Z,4.50
2018-10-06T07:25:46.678Z,4.57
2018-10-06T07:28:14.703Z,4.67
2018-10-06T07:30:42.740Z,4.37
2018-10-06T07:33:10.889Z,4.87
2018-10-06T07:35:39.206Z,4.80
2018-10-06T07:38:07.333Z,4.03
2018-10-06T07:40:35.359Z,4.83
2018-10-06T07:43:03.403Z,4.77
2018-10-06T07:45:31.425Z,4.93
2018-10-06T07:47:59.718Z,5.83
2018-10-06T07:50:27.754Z,5.40
2018-10-06T07:52:55.978Z,4.58
2018-10-06T07:55:24.035Z,4.70
2018-10-06T07:57:52.249Z,5.13
2018-10-06T08:00:20.366Z,5.05
2018-10-06T08:02:48.762Z,4.58
2018-10-06T08:05:16.768Z,4.95
2018-10-06T08:07:44.786Z,4.65
2018-10-06T08:10:13.171Z,4.62
2018-10-06T08:12:41.202Z,4.90
2018-10-06T08:15:09.374Z,4.78
2018-10-06T08:17:37.611Z,5.10
2018-10-06T08:20:05.666Z,6.83
2018-10-06T08:22:33.751Z,4.25
2018-10-06T08:25:01.937Z,4.72
2018-10-06T08:27:29.970Z,4.50
2018-10-06T08:29:58.251Z,4.35
2018-10-06T08:32:26.422Z,5.83
2018-10-06T08:34:54.480Z,4.67
2018-10-06T08:37:22.539Z,4.83
2018-10-06T08:39:50.601Z,5.92
2018-10-06T08:42:18.750Z,4.57
2018-10-06T08:44:46.749Z,4.40
2018-10-06T08:47:15.289Z,4.78
2018-10-06T08:49:43.503Z,7.10
2018-10-06T08:52:11.594Z,4.58
2018-10-06T08:54:39.936Z,6.78
2018-10-06T08:57:08.058Z,6.00
2018-10-06T08:59:36.306Z,5.30
2018-10-06T09:02:04.402Z,5.03
2018-10-06T09:04:32.419Z,4.50
2018-10-06T09:07:00.454Z,4.45
2018-10-06T09:09:28.731Z,4.80
2018-10-06T09:11:57.223Z,4.40
2018-10-06T09:14:25.238Z,4.50
2018-10-06T09:16:53.358Z,4.62
2018-10-06T09:19:21.371Z,4.50
2018-10-06T09:21:49.351Z,4.00
2018-10-06T09:24:17.485Z,4.10
2018-10-06T09:26:45.506Z,4.85
2018-10-06T09:29:13.574Z,3.90
2018-10-06T09:31:41.570Z,3.60
2018-10-06T09:34:09.609Z,3.77
2018-10-06T09:36:37.643Z,4.35
2018-10-06T09:39:07.031Z,4.80
2018-10-06T09:41:35.082Z,3.50
2018-10-06T09:44:03.214Z,3.92
2018-10-06T09:46:31.306Z,4.70
2018-10-06T09:48:59.389Z,3.98
2018-10-06T09:51:27.537Z,4.15
2018-10-06T09:53:55.864Z,3.75
2018-10-06T09:56:23.892Z,3.92
2018-10-06T09:58:52.146Z,4.12
2018-10-06T10:01:26.216Z,3.85
2018-10-06T10:03:59.984Z,3.72
2018-10-06T10:06:28.133Z,4.30
2018-10-06T10:08:56.165Z,3.87
2018-10-06T10:11:24.258Z,4.58
2018-10-06T10:13:52.493Z,3.05
2018-10-06T10:16:20.547Z,4.20
2018-10-06T10:18:48.630Z,3.58
2018-10-06T10:21:16.938Z,4.12
2018-10-06T10:23:45.030Z,4.03
2018-10-06T10:26:13.062Z,4.45
2018-10-06T10:28:41.334Z,4.00
2018-10-06T10:31:09.462Z,3.77
2018-10-06T10:33:37.520Z,4.10
2018-10-06T10:36:05.795Z,4.90
2018-10-06T10:38:34.007Z,4.40
2018-10-06T10:41:02.051Z,3.52
2018-10-06T10:43:30.211Z,4.15
2018-10-06T10:45:58.238Z,4.10
2018-10-06T10:48:26.387Z,4.00
2018-10-06T10:50:54.402Z,4.22
2018-10-06T10:53:22.439Z,3.83
2018-10-06T10:55:50.460Z,4.28
2018-10-06T10:58:18.543Z,4.37
2018-10-06T11:00:46.559Z,4.45
2018-10-06T11:03:15.112Z,3.87
2018-10-06T11:05:43.239Z,7.53
2018-10-06T11:08:11.218Z,3.62
2018-10-06T11:10:40.332Z,5.62
2018-10-06T11:13:08.898Z,4.08
2018-10-06T11:15:36.916Z,3.80
2018-10-06T11:18:05.030Z,5.65
2018-10-06T11:20:33.172Z,4.17
2018-10-06T11:23:01.205Z,3.65
2018-10-06T11:25:29.778Z,3.40
2018-10-06T11:27:58.127Z,3.90
2018-10-06T11:30:26.321Z,4.08
2018-10-06T11:32:54.344Z,4.12
2018-10-06T11:35:22.416Z,3.47
2018-10-06T11:37:50.529Z,3.85
2018-10-06T11:40:18.435Z,3.60
2018-10-06T11:42:46.553Z,4.20
2018-10-06T11:45:14.552Z,4.20
2018-10-06T11:47:42.625Z,3.45
2018-10-06T11:50:11.294Z,3.90
2018-10-06T11:52:39.338Z,4.42
2018-10-06T11:55:07.379Z,4.20
2018-10-06T11:57:35.602Z,4.00
2018-10-06T12:00:03.790Z,3.55
2018-10-06T12:02:31.780Z,3.90
2018-10-06T12:05:00.015Z,4.03
2018-10-06T12:07:28.034Z,4.20
2018-10-06T12:09:56.046Z,3.83
2018-10-06T12:12:24.114Z,3.60
2018-10-06T12:14:52.212Z,3.72
2018-10-06T12:17:20.367Z,3.50
2018-10-06T12:19:48.791Z,3.65
2018-10-06T12:22:16.852Z,4.47
2018-10-06T12:24:44.899Z,4.55
2018-10-06T12:27:13.263Z,4.10
2018-10-06T12:29:41.439Z,4.25
2018-10-06T12:32:09.616Z,3.50
2018-10-06T12:34:37.672Z,3.98
2018-10-06T12:37:05.754Z,3.70
2018-10-06T12:39:33.826Z,4.87
2018-10-06T12:42:02.137Z,3.83
2018-10-06T12:44:31.050Z,3.87
2018-10-06T12:46:59.318Z,3.40
2018-10-06T12:49:27.582Z,3.72
2018-10-06T12:51:56.526Z,3.30
2018-10-06T12:54:24.724Z,3.37
2018-10-06T12:56:52.851Z,3.20
2018-10-06T12:59:20.950Z,3.60
2018-10-06T13:01:48.999Z,3.30
2018-10-06T13:04:17.095Z,3.47
2018-10-06T13:06:45.529Z,3.10
2018-10-06T13:09:13.540Z,4.17
2018-10-06T13:11:42.075Z,3.40
2018-10-06T13:14:10.086Z,2.95
2018-10-06T13:16:38.175Z,2.90
2018-10-06T13:19:06.646Z,3.27
2018-10-06T13:21:34.670Z,3.25
2018-10-06T13:24:02.706Z,3.30
2018-10-06T13:26:30.735Z,3.30
2018-10-06T13:28:58.771Z,2.83
2018-10-06T13:31:26.868Z,3.10
2018-10-06T13:33:55.086Z,2.80
2018-10-06T13:36:23.354Z,2.62
2018-10-06T13:38:51.373Z,2.42
2018-10-06T13:41:19.507Z,3.40
2018-10-06T13:43:47.526Z,2.25
2018-10-06T13:46:15.665Z,2.40
2018-10-06T13:48:43.922Z,2.20
2018-10-06T13:51:11.928Z,2.80
2018-10-06T13:53:39.973Z,2.60
2018-10-06T13:56:08.023Z,2.83
2018-10-06T13:58:36.171Z,2.83
2018-10-06T14:01:04.178Z,2.10
2018-10-06T14:03:32.448Z,3.08
2018-10-06T14:06:00.615Z,3.00
2018-10-06T14:08:29.713Z,2.52
2018-10-06T14:10:58.295Z,2.47
2018-10-06T14:13:26.461Z,2.42
2018-10-06T14:15:54.459Z,2.30
2018-10-06T14:18:22.726Z,2.98
2018-10-06T14:20:50.758Z,2.52
2018-10-06T14:23:18.770Z,2.62
2018-10-06T14:25:47.442Z,2.05
2018-10-06T14:28:15.606Z,2.70
2018-10-06T14:30:43.659Z,2.05
2018-10-06T14:33:11.700Z,2.52
2018-10-06T14:35:39.745Z,2.62
2018-10-06T14:38:07.925Z,5.00
2018-10-06T14:40:36.594Z,2.30
2018-10-06T14:43:04.645Z,2.00
2018-10-06T14:45:32.715Z,2.08
2018-10-06T14:48:01.059Z,2.90
2018-10-06T14:50:29.086Z,2.35
2018-10-06T14:52:57.134Z,2.55
2018-10-06T14:55:25.413Z,2.90
2018-10-06T14:57:53.482Z,2.55
2018-10-06T15:00:21.599Z,3.05
2018-10-06T15:02:50.044Z,2.55
2018-10-06T15:05:18.122Z,2.45
2018-10-06T15:07:46.142Z,2.90
2018-10-06T15:10:14.706Z,3.17
2018-10-06T15:12:42.694Z,2.60
2018-10-06T15:15:10.684Z,3.00
2018-10-06T15:17:38.879Z,2.80
2018-10-06T15:20:06.963Z,2.60
2018-10-06T15:22:35.473Z,2.40
2018-10-06T15:25:04.131Z,2.60
2018-10-06T15:27:32.318Z,2.40
2018-10-06T15:30:00.367Z,3.45
2018-10-06T15:32:28.456Z,2.60
2018-10-06T15:34:56.628Z,2.92
2018-10-06T15:37:24.647Z,2.83
2018-10-06T15:39:52.694Z,3.17
2018-10-06T15:42:21.089Z,2.80
2018-10-06T15:44:49.153Z,3.37
2018-10-06T15:47:18.426Z,3.00
2018-10-06T15:49:46.673Z,3.52
2018-10-06T15:52:14.755Z,3.45
2018-10-06T15:54:42.868Z,3.05
2018-10-06T15:57:10.923Z,3.75
2018-10-06T15:59:40.388Z,3.42
2018-10-06T16:02:08.771Z,3.65
2018-10-06T16:04:36.801Z,3.77
2018-10-06T16:07:04.805Z,4.22
2018-10-06T16:09:33.307Z,3.55
2018-10-06T16:12:01.767Z,3.02
2018-10-06T16:14:30.150Z,3.20
2018-10-06T16:16:58.194Z,4.78
2018-10-06T16:19:26.251Z,5.60
2018-10-06T16:21:54.255Z,4.47
2018-10-06T16:24:22.384Z,4.33
2018-10-06T16:26:50.377Z,4.67
2018-10-06T16:29:18.419Z,4.67
2018-10-06T16:31:46.645Z,4.28
2018-10-06T16:34:14.774Z,4.83
2018-10-06T16:36:42.762Z,4.67
2018-10-06T16:39:10.777Z,5.53
2018-10-06T16:41:38.794Z,4.72
2018-10-06T16:44:06.793Z,4.70
2018-10-06T16:46:35.503Z,5.30
2018-10-06T16:49:03.662Z,5.45
2018-10-06T16:51:31.879Z,4.58
2018-10-06T16:53:59.974Z,5.10
2018-10-06T16:56:27.990Z,5.55
2018-10-06T16:58:56.043Z,5.03
2018-10-06T17:01:24.322Z,5.50
2018-10-06T17:03:52.407Z,7.28
2018-10-06T17:06:20.621Z,5.10
2018-10-06T17:08:49.259Z,4.35
2018-10-06T17:11:17.438Z,5.50
2018-10-06T17:13:45.674Z,4.75
2018-10-06T17:16:14.182Z,5.00
2018-10-06T17:18:42.340Z,4.92
2018-10-06T17:21:10.275Z,4.58
2018-10-06T17:23:38.815Z,5.67
2018-10-06T17:26:06.834Z,6.92
2018-10-06T17:28:34.833Z,6.75
2018-10-06T17:31:03.073Z,7.92
2018-10-06T17:33:31.086Z,7.47
2018-10-06T17:35:59.073Z,7.10
2018-10-06T17:38:27.239Z,6.45
2018-10-06T17:40:55.550Z,7.15
2018-10-06T17:43:23.604Z,7.28
2018-10-06T17:45:51.950Z,7.78
2018-10-06T17:48:21.165Z,9.13
2018-10-06T17:50:49.590Z,7.53
2018-10-06T17:53:17.487Z,7.40
2018-10-06T17:55:45.602Z,7.30
2018-10-06T17:58:13.991Z,7.67
2018-10-06T18:00:42.010Z,7.60
2018-10-06T18:03:10.300Z,5.90
2018-10-06T18:05:38.678Z,5.83
2018-10-06T18:08:07.066Z,7.12
2018-10-06T18:10:35.220Z,5.42
2018-10-06T18:13:03.433Z,5.67
2018-10-06T18:15:31.643Z,5.80
2018-10-06T18:18:00.064Z,6.65
2018-10-06T18:20:28.429Z,6.35
2018-10-06T18:22:56.515Z,5.47
2018-10-06T18:25:24.544Z,6.22
2018-10-06T18:27:52.641Z,6.12
2018-10-06T18:30:20.734Z,6.20
2018-10-06T18:32:48.775Z,7.37
2018-10-06T18:35:16.829Z,7.65
2018-10-06T18:37:44.834Z,7.67
2018-10-06T18:40:12.863Z,7.90
2018-10-06T18:42:40.959Z,7.83
2018-10-06T18:45:08.974Z,6.83
2018-10-06T18:47:36.997Z,7.87
2018-10-06T18:50:05.259Z,8.13
2018-10-06T18:52:33.274Z,6.55
2018-10-06T18:55:01.430Z,6.97
2018-10-06T18:57:29.848Z,7.08
2018-10-06T18:59:57.921Z,7.05
2018-10-06T19:02:25.934Z,7.53
2018-10-06T19:04:54.048Z,6.67
2018-10-06T19:07:22.072Z,7.95
2018-10-06T19:09:50.108Z,6.60
2018-10-06T19:12:18.137Z,7.25
2018-10-06T19:14:46.306Z,7.78
2018-10-06T19:17:14.558Z,7.58
2018-10-06T19:19:42.621Z,6.85
2018-10-06T19:22:11.542Z,7.85
2018-10-06T19:24:39.620Z,6.92
2018-10-06T19:27:07.670Z,6.87
2018-10-06T19:29:35.664Z,7.12
2018-10-06T19:32:03.711Z,7.15
2018-10-06T19:34:32.118Z,7.17
2018-10-06T19:37:00.148Z,7.03
2018-10-06T19:39:28.193Z,7.10
2018-10-06T19:41:56.323Z,6.90
2018-10-06T19:44:24.411Z,7.17
2018-10-06T19:46:52.446Z,7.20
2018-10-06T19:49:20.742Z,6.80
2018-10-06T19:51:48.841Z,7.43
2018-10-06T19:54:16.930Z,6.45
2018-10-06T19:56:45.106Z,6.30
2018-10-06T19:59:13.167Z,7.23
2018-10-06T20:01:41.294Z,6.80
2018-10-06T20:04:09.574Z,7.03
2018-10-06T20:06:37.645Z,5.77
2018-10-06T20:09:07.750Z,6.75
2018-10-06T20:11:35.828Z,7.08
2018-10-06T20:14:03.833Z,6.47
2018-10-06T20:16:31.974Z,6.20
2018-10-06T20:19:00.139Z,6.12
2018-10-06T20:21:28.194Z,6.08
2018-10-06T20:23:56.540Z,6.95
2018-10-06T20:26:24.890Z,6.67
2018-10-06T20:28:52.924Z,5.85
2018-10-06T20:31:21.605Z,7.08
2018-10-06T20:33:49.714Z,6.67
2018-10-06T20:36:17.749Z,6.47
2018-10-06T20:38:45.801Z,6.10
2018-10-06T20:41:13.934Z,6.75
2018-10-06T20:43:41.991Z,6.90
2018-10-06T20:46:10.487Z,6.53
2018-10-06T20:48:38.814Z,7.20
2018-10-06T20:51:06.818Z,6.65
2018-10-06T20:53:35.058Z,6.12
2018-10-06T20:56:03.065Z,5.50
2018-10-06T20:58:31.218Z,6.35
2018-10-06T21:00:59.628Z,6.35
2018-10-06T21:03:27.709Z,5.70
2018-10-06T21:05:56.096Z,6.35
2018-10-06T21:08:24.343Z,5.53
2018-10-06T21:10:52.421Z,5.65
2018-10-06T21:13:20.527Z,6.25
2018-10-06T21:15:48.773Z,6.45
2018-10-06T21:18:16.790Z,5.95
2018-10-06T21:20:45.299Z,5.35
2018-10-06T21:23:13.506Z,5.28
2018-10-06T21:25:41.515Z,5.75
2018-10-06T21:28:09.659Z,5.45
2018-10-06T21:30:37.866Z,5.53
2018-10-06T21:33:06.006Z,5.28
2018-10-06T21:35:34.050Z,5.92
2018-10-06T21:38:02.510Z,5.25
2018-10-06T21:40:30.574Z,10.90
2018-10-06T21:42:58.601Z,6.28
2018-10-06T21:45:26.841Z,6.03
2018-10-06T21:47:54.861Z,6.22
2018-10-06T21:50:22.886Z,5.87
2018-10-06T21:52:51.367Z,5.80
2018-10-06T21:55:19.402Z,5.75
2018-10-06T21:57:47.407Z,6.58
2018-10-06T22:00:16.343Z,5.58
2018-10-06T22:02:44.596Z,5.47
2018-10-06T22:05:12.674Z,5.60
2018-10-06T22:07:40.921Z,5.90
2018-10-06T22:10:08.950Z,5.25
2018-10-06T22:12:36.941Z,4.97
2018-10-06T22:15:05.153Z,4.97
2018-10-06T22:17:33.134Z,5.37
2018-10-06T22:20:01.481Z,5.20
2018-10-06T22:22:29.786Z,6.65
2018-10-06T22:24:57.875Z,5.42
2018-10-06T22:27:26.111Z,6.37
2018-10-06T22:29:54.231Z,6.30
2018-10-06T22:32:22.232Z,5.40
2018-10-06T22:34:50.228Z,6.40
2018-10-06T22:37:18.293Z,6.12
2018-10-06T22:39:46.454Z,5.42
2018-10-06T22:42:14.460Z,5.62
2018-10-06T22:44:43.032Z,6.53
2018-10-06T22:47:11.042Z,5.65
2018-10-06T22:49:39.142Z,6.30
2018-10-06T22:52:07.284Z,6.05
2018-10-06T22:54:35.337Z,5.20
2018-10-06T22:57:03.426Z,5.90
2018-10-06T22:59:31.434Z,5.40
2018-10-06T23:01:59.509Z,5.53
2018-10-06T23:04:27.546Z,5.87
2018-10-06T23:06:56.059Z,5.30
2018-10-06T23:09:24.130Z,5.42
2018-10-06T23:11:52.250Z,5.47
2018-10-06T23:14:20.473Z,5.35
2018-10-06T23:16:48.478Z,5.85
2018-10-06T23:19:16.507Z,5.58
2018-10-06T23:21:45.511Z,5.75
2018-10-06T23:24:13.808Z,5.75
2018-10-06T23:26:41.822Z,6.58
2018-10-06T23:29:09.854Z,5.58
2018-10-06T23:31:37.934Z,5.20
2018-10-06T23:34:05.962Z,5.58
2018-10-06T23:36:34.551Z,5.87
2018-10-06T23:39:02.551Z,5.50
2018-10-06T23:41:30.578Z,5.70
2018-10-06T23:43:58.766Z,5.03
2018-10-06T23:46:26.880Z,6.45
2018-10-06T23:48:54.910Z,6.30
2018-10-06T23:51:23.083Z,6.17
2018-10-06T23:53:51.259Z,5.85
2018-10-06T23:56:19.354Z,6.42
2018-10-06T23:58:47.547Z,6.12
